x

Mt Desert Rock, Me (mdrm1) Weather Station

11:00 - Sat 18th Apr 2015 All times are EDT. -4 hours from GMT.

  • Wind
    10mph, 11mph gusts
  • Ar Temp 40°f
  • Sea Pressure 1015mb
  • Mt Desert Rock, Me
  • Mt Desert Rock, Me

More Historic Weather Station data

Upgrade to MSW Pro to gain access to the past 30 days of data for over 8000 Wavebouys and Weather Stations around the globe.

Join Pro

Comparision Forecast

View Surf forecast
   
Sáb 04/18 11:00 10 11 mph 1015mb 40f
10:00 10 11 mph 1014.8mb 40f
9:00 16 17 mph 1014.4mb 40f
8:00 16 17 mph 1014.2mb 40f
7:00 11 13 mph 1014.1mb 41f
6:00 14
mph
1013.3mb 42f
5:00 16 17 mph 1012.4mb 44f
4:00 17 18 mph 1011.4mb 46f
3:00 18 20 mph 1010.8mb 46f
2:00 17 20 mph 1010.4mb 44f
1:00 15
mph
1010.2mb 44f
12:00 15 16 mph 1009.8mb 43f
Sex 04/17 11:00 17 18 mph 1009.5mb 44f
10:00 16 17 mph 1009.7mb 44f
9:00 21 23 mph 1009.4mb 43f
8:00 20 21 mph 1008.8mb 45f
7:00 21 22 mph 1008.4mb 44f
6:00 20 22 mph 1008.7mb 42f
5:00 22 23 mph 1008.6mb 41f
4:00 21 22 mph 1009.1mb 42f
3:00 17 18 mph 1010.1mb 42f
2:00 21 23 mph 1011.1mb 42f
1:00 21 23 mph 1011.9mb 42f
12:00 23 24 mph 1012.9mb 42f
11:00 25 28 mph 1013.6mb 42f
10:00 29 32 mph 1014.1mb 42f
9:00 32 34 mph 1014.6mb 44f
8:00 30 33 mph 1015.3mb 43f
7:00 22 25 mph 1016.7mb 44f
6:00 32 34 mph 1016.4mb 43f
5:00 30 36 mph 1016.9mb 43f
4:00 30 32 mph 1017.7mb 42f
3:00 33 37 mph 1018.6mb 43f
2:00 26 30 mph 1019.9mb 43f
1:00 28 30 mph 1021.4mb 43f
12:00 23 25 mph 1022.8mb 43f
Qui 04/16 11:00 22 25 mph 1023.7mb 42f
10:00 25 26 mph 1024.5mb 42f
9:00 22 23 mph 1025.7mb 41f
8:00 24 25 mph 1025.5mb 41f
7:00 24 25 mph 1026.1mb 40f
6:00 20 21 mph 1027mb 40f
5:00 22 23 mph 1027.6mb 41f
4:00 18 22 mph 1028.2mb 42f
3:00 18 21 mph 1028.8mb 42f
2:00 11 13 mph 1029.8mb 42f
1:00 11 13 mph 1030.4mb 42f
12:00 8 9 mph 1031.1mb 42f
11:00  -  1 mph 1031.8mb 40f
10:00 6 7 mph 1032.1mb 39f
9:00 11 13 mph 1031.4mb 39f
8:00 17 20 mph 1031.4mb 39f
7:00 16 17 mph 1030.9mb 39f
6:00 13 14 mph 1030mb 38f
5:00 13 14 mph 1029.2mb 39f
4:00 11
mph
1028.6mb 40f
3:00 13 14 mph 1028.2mb 41f
2:00 14
mph
1027.6mb 41f
1:00 13
mph
1027.4mb 41f
12:00 9
mph
1026.9mb 41f
Qua 04/15 11:00 14
mph
1026.4mb 44f
10:00 16
mph
1025.3mb 45f
9:00 13 14 mph 1024.5mb 43f
8:00 3 6 mph 1023.1mb 43f
7:00 7 8 mph 1021.9mb 44f
6:00 13
mph
1021.1mb 46f
5:00 15 16 mph 1020.3mb 47f
4:00 24 25 mph 1019.5mb 48f
3:00 11 13 mph 1019.2mb 44f
2:00 20
mph
1018.8mb 47f